Terminal Aerodrome Forecast
Issued by NWS

Home | Current Version | Previous Version | Text Only | Print | Product List | Glossary On
Versions: 1 2 3 4 5 6 7 8 9 10 11 12 13 14 15 16 17 18 19 20 21 22 23 24 25 26 27 28 29 30 31 32 33 34 35 36 37 38 39 40
000
FTUS46 KPQR 250529
TAFONP
TAF
KONP 250529Z 2506/2606 35008KT P6SM OVC013
     FM251000 33003KT 2SM BR BKN007 OVC011
     FM251700 33007KT P6SM OVC008
     FM252200 34014G20KT P6SM OVC012
     FM260400 34008KT P6SM OVC010=

USA.gov is the U.S. government's official web portal to all federal, state and local government web resources and services.